Time;durP1;ratioP1;P1;durP2;ratioP2;P2;SDS_P1;SDS_P2;PMS_P1;PMS_P2;Temp;Humidity;BMP_temperature;BMP_pressure;BME280_temperature;BME280_humidity;BME280_pressure;Samples;Min_cycle;Max_cycle;Signal;HPM_P1;HPM_P2
2022/09/21 00:00:40;;;;;;;;;;;19.80;76.40;;;;;;6098374;23;19905;-72
2022/09/21 00:03:07;;;;;;;;;;;19.80;76.30;;;;;;6124404;23;19988;-70
2022/09/21 00:05:33;;;;;;;;;;;19.90;76.00;;;;;;6098149;23;20388;-70
2022/09/21 00:08:01;;;;;;;;;;;20.00;76.70;;;;;;6124290;23;19905;-70
2022/09/21 00:10:27;;;;;;;;;;;20.10;76.40;;;;;;6096180;23;20288;-70
2022/09/21 00:12:55;;;;;;;;;;;20.00;75.50;;;;;;6095307;23;19971;-70
2022/09/21 00:15:21;;;;;;;;;;;20.10;75.00;;;;;;6121658;23;20301;-70
2022/09/21 00:17:50;;;;;;;;;;;20.20;73.90;;;;;;6095490;23;19962;-70
2022/09/21 00:20:16;;;;;;;;;;;20.20;75.00;;;;;;6095558;23;19912;-70
2022/09/21 00:22:43;;;;;;;;;;;20.20;75.00;;;;;;6094917;23;19944;-69
2022/09/21 00:25:09;;;;;;;;;;;20.20;73.70;;;;;;6121193;23;20356;-69
2022/09/21 00:27:36;;;;;;;;;;;20.10;74.00;;;;;;6121068;23;19905;-67
2022/09/21 00:30:05;;;;;;;;;;;20.20;74.50;;;;;;6121027;23;19916;-67
2022/09/21 00:32:32;;;;;;;;;;;20.20;74.60;;;;;;6121457;23;20206;-69
2022/09/21 00:34:59;;;;;;;;;;;20.20;74.50;;;;;;6121203;23;20328;-69
2022/09/21 00:37:26;;;;;;;;;;;20.20;74.10;;;;;;6121911;23;19909;-69
2022/09/21 00:39:53;;;;;;;32.25;5.97;;;20.20;74.30;;;;;;6093431;23;20758;-73
2022/09/21 00:42:26;;;;;;;18.45;3.70;;;20.30;73.70;;;;;;6095095;23;20005;-70
2022/09/21 00:44:53;;;;;;;17.10;2.70;;;20.30;74.30;;;;;;6092542;23;20005;-70
2022/09/21 00:47:40;;;;;;;15.38;2.50;;;20.30;73.90;;;;;;6120456;23;20006;-69
2022/09/21 00:50:13;;;;;;;22.15;4.00;;;20.30;72.90;;;;;;6094746;23;20006;-70
2022/09/21 00:52:45;;;;;;;13.57;2.85;;;20.30;73.60;;;;;;6071789;23;20074;-76
2022/09/21 00:55:17;;;;;;;14.95;2.33;;;20.30;73.20;;;;;;6096033;23;20123;-72
2022/09/21 00:57:46;;;;;;;13.68;2.30;;;20.30;72.90;;;;;;6120608;23;20010;-73
2022/09/21 01:00:13;;;;;;;10.05;2.67;;;20.30;73.00;;;;;;6094907;23;20081;-73
2022/09/21 01:02:40;;;;;;;14.32;2.85;;;20.20;72.40;;;;;;6095252;23;20386;-72
2022/09/21 01:05:08;;;;;;;18.73;3.13;;;20.10;72.60;;;;;;6094676;23;20443;-72
2022/09/21 01:07:37;;;;;;;11.68;2.17;;;20.10;73.10;;;;;;6094277;23;20014;-73
2022/09/21 01:10:08;;;;;;;22.75;3.75;;;20.10;73.30;;;;;;6070702;23;20448;-73
2022/09/21 01:13:04;;;;;;;14.90;3.15;;;20.10;74.70;;;;;;6094703;23;20077;-74
2022/09/21 01:15:57;;;;;;;26.83;3.67;;;20.10;74.20;;;;;;6070244;23;20010;-73
2022/09/21 01:18:30;;;;;;;20.13;2.95;;;20.20;74.80;;;;;;6071686;23;20010;-73
2022/09/21 01:21:21;;;;;;;18.52;2.88;;;20.20;74.70;;;;;;6094446;23;20006;-74
2022/09/21 01:24:16;;;;;;;14.65;2.85;;;20.20;74.50;;;;;;6071449;23;20068;-73
2022/09/21 01:27:09;;;;;;;23.80;2.90;;;20.20;73.90;;;;;;6120117;23;20029;-74
2022/09/21 01:29:45;;;;;;;12.55;2.55;;;20.20;73.90;;;;;;6094340;23;20009;-73
2022/09/21 01:32:26;;;;;;;20.55;3.15;;;20.10;74.20;;;;;;6119507;23;20325;-72
2022/09/21 01:35:06;;;;;;;25.88;3.33;;;20.10;74.20;;;;;;6071785;23;20350;-72
2022/09/21 01:37:54;;;;;;;17.33;2.85;;;20.10;75.00;;;;;;6096031;23;20345;-73
2022/09/21 01:40:39;;;;;;;17.27;2.63;;;20.10;74.50;;;;;;6047399;23;20029;-72
2022/09/21 01:43:08;;;;;;;14.52;2.40;;;20.10;74.30;;;;;;6065955;23;20022;-72
2022/09/21 01:45:39;;;;;;;17.33;3.45;;;20.10;74.60;;;;;;6062321;23;20014;-73
2022/09/21 01:48:06;;;;;;;19.45;3.10;;;20.10;74.90;;;;;;6043399;23;20066;-73
2022/09/21 01:50:40;;;;;;;17.77;2.58;;;20.20;74.70;;;;;;6043003;23;20112;-73
2022/09/21 01:53:34;;;;;;;15.02;2.42;;;20.20;74.60;;;;;;6043732;23;20022;-72
2022/09/21 01:56:22;;;;;;;8.75;2.70;;;20.30;75.50;;;;;;6056527;23;20006;-73
2022/09/21 01:59:08;;;;;;;18.23;3.20;;;20.30;74.60;;;;;;6092036;23;20045;-73
2022/09/21 02:01:42;;;;;;;18.17;3.42;;;20.20;75.10;;;;;;6071403;23;20360;-73
2022/09/21 02:04:11;;;;;;;21.63;2.78;;;20.30;75.40;;;;;;6068451;23;20319;-73
2022/09/21 02:06:40;;;;;;;11.18;2.45;;;20.30;73.90;;;;;;6043175;23;20007;-74
2022/09/21 02:09:08;;;;;;;15.88;2.50;;;20.20;74.40;;;;;;6066625;23;20068;-73
2022/09/21 02:11:42;;;;;;;12.50;2.78;;;20.20;74.50;;;;;;6066602;23;20014;-71
2022/09/21 02:14:15;;;;;;;14.07;2.67;;;20.20;73.80;;;;;;6068896;23;20180;-72
2022/09/21 02:16:43;;;;;;;15.63;3.17;;;20.20;73.70;;;;;;6043404;23;20033;-73
2022/09/21 02:19:45;;;;;;;22.80;3.83;;;20.10;73.60;;;;;;6092676;23;20017;-73
2022/09/21 02:22:32;;;;;;;20.42;3.30;;;20.10;74.40;;;;;;6048468;23;20413;-72
2022/09/21 02:25:14;;;;;;;20.05;3.35;;;20.10;74.40;;;;;;6021288;23;20432;-72
2022/09/21 02:28:14;;;;;;;18.55;3.00;;;20.20;75.30;;;;;;6044791;23;20014;-72
2022/09/21 02:30:43;;;;;;;96.15;14.35;;;20.20;74.50;;;;;;6043201;23;20026;-72
2022/09/21 02:33:19;;;;;;;30.55;5.13;;;20.20;74.40;;;;;;6067228;23;20050;-72
2022/09/21 02:36:00;;;;;;;19.70;4.47;;;20.30;74.60;;;;;;6037908;23;20704;-72
2022/09/21 02:38:39;;;;;;;23.80;4.53;;;20.30;74.80;;;;;;6038878;23;20113;-72
2022/09/21 02:41:19;;;;;;;44.85;5.93;;;20.30;74.20;;;;;;6062588;23;20804;-73
2022/09/21 02:44:15;;;;;;;;;;;20.30;74.90;;;;;;6062715;23;20018;-75
2022/09/21 02:46:55;;;;;;;26.35;3.92;;;20.30;74.60;;;;;;6038284;23;19959;-73
2022/09/21 02:49:26;;;;;;;30.17;5.75;;;20.30;74.70;;;;;;6038409;23;20022;-73
2022/09/21 02:51:56;;;;;;;33.53;4.78;;;20.20;75.20;;;;;;6014732;23;20027;-74
2022/09/21 02:54:24;;;;;;;;;;;20.30;75.10;;;;;;6038553;23;20078;-73
2022/09/21 02:56:51;;;;;;;22.05;4.07;;;20.30;74.90;;;;;;6038357;23;19920;-72
2022/09/21 02:59:22;;;;;;;24.13;4.35;;;20.20;74.20;;;;;;6014780;23;20011;-73
2022/09/21 03:01:50;;;;;;;26.67;4.38;;;20.20;74.10;;;;;;6037597;23;20011;-73
2022/09/21 03:04:17;;;;;;;21.48;6.35;;;20.20;75.20;;;;;;6063678;23;20082;-73
2022/09/21 03:06:44;;;;;;;22.20;3.50;;;20.20;75.40;;;;;;6063117;23;20030;-73
2022/09/21 03:09:11;;;;;;;12.70;2.95;;;20.20;75.20;;;;;;6063021;23;20014;-73
2022/09/21 03:11:41;;;;;;;19.95;3.22;;;20.20;74.20;;;;;;6038679;23;20010;-72
2022/09/21 03:14:08;;;;;;;23.35;4.43;;;20.20;74.60;;;;;;6063440;23;20007;-73
2022/09/21 03:16:35;;;;;;;18.67;3.67;;;20.20;75.00;;;;;;6063106;23;20086;-73
2022/09/21 03:19:03;;;;;;;14.77;2.80;;;20.20;75.20;;;;;;6063303;23;20011;-73
2022/09/21 03:21:30;;;;;;;26.95;3.65;;;20.20;74.90;;;;;;6063248;23;20321;-72
2022/09/21 03:23:57;;;;;;;16.35;3.38;;;20.20;75.30;;;;;;6037793;23;20034;-74
2022/09/21 03:26:25;;;;;;;21.88;3.53;;;20.20;75.30;;;;;;6062488;23;20518;-72
2022/09/21 03:28:55;;;;;;;18.50;3.88;;;20.20;75.90;;;;;;6062974;23;19999;-72
2022/09/21 03:31:21;;;;;;;;;;;20.20;76.40;;;;;;6063932;23;20011;-71
2022/09/21 03:33:49;;;;;;;32.97;5.85;;;20.20;75.70;;;;;;6063602;23;19910;-73
2022/09/21 03:36:16;;;;;;;18.48;3.90;;;20.10;76.30;;;;;;6062731;23;19999;-73
2022/09/21 03:38:43;;;;;;;15.90;2.78;;;20.10;76.40;;;;;;6062686;23;20019;-73
2022/09/21 03:41:10;;;;;;;16.13;3.05;;;20.10;75.70;;;;;;6063080;23;20435;-73
2022/09/21 03:43:37;;;;;;;29.17;4.85;;;20.10;76.10;;;;;;6063448;23;20014;-73
2022/09/21 03:46:04;;;;;;;30.48;4.35;;;20.00;76.60;;;;;;6060158;23;20475;-73
2022/09/21 03:48:32;;;;;;;33.53;4.60;;;20.00;76.50;;;;;;6062353;23;20398;-73
2022/09/21 03:50:59;;;;;;;29.10;4.18;;;20.00;77.10;;;;;;6063126;23;20014;-73
2022/09/21 03:53:26;;;;;;;31.55;5.05;;;20.00;77.50;;;;;;6063089;23;20018;-73
2022/09/21 03:55:53;;;;;;;28.65;3.45;;;20.00;77.60;;;;;;6062617;23;20011;-76
2022/09/21 03:58:21;;;;;;;17.23;3.20;;;19.90;77.50;;;;;;6062741;23;20015;-74
2022/09/21 04:00:48;;;;;;;21.92;3.35;;;19.90;77.40;;;;;;6062497;23;20013;-73
2022/09/21 04:03:15;;;;;;;26.42;4.13;;;19.80;77.40;;;;;;6037000;23;20026;-73
2022/09/21 04:05:42;;;;;;;27.77;3.72;;;19.80;77.60;;;;;;6037335;23;20078;-74
2022/09/21 04:08:09;;;;;;;13.02;3.70;;;19.80;77.70;;;;;;6062392;23;20010;-72
2022/09/21 04:10:39;;;;;;;16.38;3.58;;;19.80;78.00;;;;;;6062230;23;20091;-72
2022/09/21 04:13:07;;;;;;;16.25;3.10;;;19.80;77.70;;;;;;6061508;23;20320;-73
2022/09/21 04:15:35;;;;;;;13.10;2.65;;;19.70;77.60;;;;;;6037226;23;20015;-73
2022/09/21 04:18:02;;;;;;;22.50;3.63;;;19.70;77.70;;;;;;6062570;23;20018;-73
2022/09/21 04:20:29;;;;;;;17.67;3.60;;;19.70;77.40;;;;;;6062457;23;20007;-73
2022/09/21 04:22:57;;;;;;;15.02;2.85;;;19.80;77.60;;;;;;6036897;23;20403;-73
2022/09/21 04:25:24;;;;;;;21.88;3.85;;;19.70;77.50;;;;;;6062416;23;20034;-73
2022/09/21 04:27:51;;;;;;;26.25;3.90;;;19.70;77.80;;;;;;6062382;23;20505;-73
2022/09/21 04:30:18;;;;;;;27.48;4.10;;;19.70;77.90;;;;;;6062446;23;20013;-74
2022/09/21 04:32:45;;;;;;;15.70;3.28;;;19.70;78.10;;;;;;6061683;23;20053;-71
2022/09/21 04:35:13;;;;;;;19.10;3.80;;;19.70;77.90;;;;;;6036642;23;20017;-71
2022/09/21 04:37:40;;;;;;;26.98;4.75;;;19.70;78.30;;;;;;6062684;23;20022;-71
2022/09/21 04:40:08;;;;;;;31.67;4.90;;;19.70;78.40;;;;;;6062255;23;20151;-70
2022/09/21 04:42:35;;;;;;;36.85;5.05;;;19.70;78.70;;;;;;6062508;23;20026;-71
2022/09/21 04:45:03;;;;;;;23.77;3.85;;;19.70;78.80;;;;;;6060490;23;20017;-70
2022/09/21 04:47:30;;;;;;;25.88;4.25;;;19.70;78.60;;;;;;6062223;23;20018;-70
2022/09/21 04:49:58;;;;;;;19.85;3.72;;;19.70;79.10;;;;;;6062981;23;20010;-71
2022/09/21 04:52:25;;;;;;;22.92;4.60;;;19.70;79.10;;;;;;6061518;23;20093;-72
2022/09/21 04:54:52;;;;;;;25.58;3.72;;;19.70;79.20;;;;;;6062301;23;20058;-72
2022/09/21 04:57:19;;;;;;;24.13;4.35;;;19.70;79.20;;;;;;6036483;23;20502;-71
2022/09/21 04:59:46;;;;;;;18.63;3.47;;;19.60;79.40;;;;;;6061289;23;20402;-73
2022/09/21 05:02:13;;;;;;;23.55;4.05;;;19.60;79.50;;;;;;6062813;23;20010;-74
2022/09/21 05:04:41;;;;;;;18.67;4.07;;;19.50;79.50;;;;;;6062860;23;20054;-73
2022/09/21 05:07:08;;;;;;;25.60;3.83;;;19.60;79.80;;;;;;6062480;23;20054;-73
2022/09/21 05:12:20;;;;;;;25.95;4.00;;;19.60;79.70;;;;;;6062329;23;20388;-72
2022/09/21 05:14:47;;;;;;;36.05;5.53;;;19.50;79.70;;;;;;6062663;23;20070;-72
2022/09/21 05:17:15;;;;;;;21.20;3.80;;;19.50;80.10;;;;;;6062039;23;20019;-72
2022/09/21 05:19:42;;;;;;;23.40;4.15;;;19.50;79.90;;;;;;6037115;23;20006;-71
2022/09/21 05:22:10;;;;;;;22.20;4.28;;;19.50;80.40;;;;;;6062125;23;20003;-72
2022/09/21 05:24:37;;;;;;;22.73;3.67;;;19.50;80.60;;;;;;6062616;23;20011;-71
2022/09/21 05:27:04;;;;;;;17.95;3.75;;;19.40;80.30;;;;;;6038477;23;20038;-73
2022/09/21 05:29:32;;;;;;;19.38;4.00;;;19.40;80.50;;;;;;6064202;23;20090;-70
2022/09/21 05:32:11;;;;;;;23.65;4.13;;;19.40;80.40;;;;;;6063973;23;20010;-71
2022/09/21 05:34:38;;;;;;;33.50;4.40;;;19.40;80.70;;;;;;6064109;23;20350;-71
2022/09/21 05:37:20;;;;;;;20.77;4.45;;;19.40;80.90;;;;;;6064533;23;20065;-71
2022/09/21 05:39:47;;;;;;;14.25;3.58;;;19.40;80.80;;;;;;6051126;23;20027;-71
2022/09/21 05:42:15;;;;;;;19.30;3.33;;;19.30;80.80;;;;;;6063718;23;20406;-77
2022/09/21 05:44:42;;;;;;;18.70;3.83;;;19.30;81.00;;;;;;6061955;23;19999;-77
2022/09/21 05:47:56;;;;;;;25.10;3.55;;;19.30;81.20;;;;;;6063278;23;20010;-76
2022/09/21 05:50:44;;;;;;;20.83;3.60;;;19.30;81.00;;;;;;5947778;24;20013;-76
2022/09/21 05:53:24;;;;;;;19.27;4.45;;;19.30;81.30;;;;;;5948176;24;20504;-76
2022/09/21 05:55:59;;;;;;;33.70;4.80;;;19.30;81.30;;;;;;5999585;23;20015;-75
2022/09/21 05:58:39;;;;;;;15.85;3.83;;;19.30;81.40;;;;;;6060511;23;20017;-75
2022/09/21 06:01:30;;;;;;;16.20;3.70;;;19.30;81.60;;;;;;6062516;23;20419;-76
2022/09/21 06:03:57;;;;;;;17.92;3.35;;;19.30;81.30;;;;;;6064491;23;20038;-77
2022/09/21 06:06:25;;;;;;;23.10;3.88;;;19.30;81.40;;;;;;6014964;23;20015;-76
2022/09/21 06:08:52;;;;;;;18.27;3.35;;;19.30;81.50;;;;;;6061277;23;20002;-76
2022/09/21 06:11:19;;;;;;;15.77;3.67;;;19.20;81.50;;;;;;6063700;23;20078;-77
2022/09/21 06:13:46;;;;;;;20.38;3.28;;;19.20;81.50;;;;;;6063525;23;20021;-72
2022/09/21 06:16:13;;;;;;;18.10;3.63;;;19.30;81.40;;;;;;6063228;23;20011;-76
2022/09/21 06:18:41;;;;;;;24.42;4.55;;;19.30;81.30;;;;;;6064694;23;20018;-75
2022/09/21 06:21:08;;;;;;;16.67;3.35;;;19.30;81.50;;;;;;6063976;23;20086;-75
2022/09/21 06:23:35;;;;;;;20.05;4.05;;;19.30;81.20;;;;;;6062748;23;20415;-75
2022/09/21 06:26:02;;;;;;;22.60;3.50;;;19.20;81.10;;;;;;6064190;23;20007;-74
2022/09/21 06:28:32;;;;;;;22.27;3.50;;;19.30;81.20;;;;;;6061178;23;20448;-74
2022/09/21 06:31:00;;;;;;;16.58;3.70;;;19.20;81.50;;;;;;6064479;23;20434;-73
2022/09/21 06:33:27;;;;;;;18.00;3.95;;;19.20;81.40;;;;;;6063260;23;20043;-74
2022/09/21 06:35:55;;;;;;;22.63;4.03;;;19.20;81.20;;;;;;6063162;23;20002;-73
2022/09/21 06:38:23;;;;;;;24.55;3.65;;;19.20;81.10;;;;;;6036444;23;20034;-76
2022/09/21 06:40:50;;;;;;;23.17;3.20;;;19.20;81.30;;;;;;6063746;23;20015;-73
2022/09/21 06:43:18;;;;;;;20.02;3.78;;;19.20;81.00;;;;;;6063538;23;20386;-76
2022/09/21 06:45:52;;;;;;;14.77;3.30;;;19.20;81.10;;;;;;6060735;23;20330;-72
2022/09/21 06:48:19;;;;;;;22.42;3.72;;;19.10;80.90;;;;;;6039648;23;19999;-72
2022/09/21 06:50:46;;;;;;;20.95;3.65;;;19.20;81.00;;;;;;6061809;23;20025;-72
2022/09/21 06:53:13;;;;;;;19.58;3.55;;;19.20;81.10;;;;;;6038138;23;20014;-72
2022/09/21 06:55:41;;;;;;;26.70;4.05;;;19.20;81.10;;;;;;6015026;23;20011;-73
2022/09/21 06:58:08;;;;;;;19.05;4.15;;;19.20;81.00;;;;;;6063527;23;20032;-73
2022/09/21 07:00:35;;;;;;;31.05;4.68;;;19.20;81.00;;;;;;6063441;23;20021;-72
2022/09/21 07:03:02;;;;;;;21.90;3.70;;;19.20;81.00;;;;;;6063368;23;20090;-72
2022/09/21 07:05:30;;;;;;;22.52;3.40;;;19.20;80.90;;;;;;6038852;23;20010;-74
2022/09/21 07:07:58;;;;;;;21.63;4.28;;;19.10;80.90;;;;;;6038572;23;20037;-74
2022/09/21 07:10:25;;;;;;;24.13;4.07;;;19.10;81.10;;;;;;6062857;23;20018;-74
2022/09/21 07:12:52;;;;;;;20.83;3.88;;;19.10;81.20;;;;;;6038396;23;20026;-73
2022/09/21 07:15:20;;;;;;;22.52;3.33;;;19.10;81.00;;;;;;6063469;23;20063;-74
2022/09/21 07:17:47;;;;;;;24.42;4.50;;;19.00;80.90;;;;;;6063412;23;20006;-74
2022/09/21 07:20:14;;;;;;;14.60;3.42;;;19.00;80.90;;;;;;6062949;23;20010;-73
2022/09/21 07:22:42;;;;;;;21.38;3.70;;;19.10;81.00;;;;;;6062828;23;20033;-74
2022/09/21 07:25:09;;;;;;;19.23;3.33;;;19.10;81.30;;;;;;6064265;23;20075;-73
2022/09/21 07:27:36;;;;;;;18.38;3.65;;;19.10;81.20;;;;;;6063633;23;20029;-73
2022/09/21 07:30:04;;;;;;;21.48;3.55;;;19.00;81.10;;;;;;6063423;23;20086;-73
2022/09/21 07:32:31;;;;;;;19.10;3.75;;;19.00;81.30;;;;;;6063373;23;20099;-73
2022/09/21 07:34:59;;;;;;;17.02;3.80;;;19.00;81.20;;;;;;6063112;23;20074;-74
2022/09/21 07:37:26;;;;;;;23.08;4.00;;;19.00;81.10;;;;;;6037599;23;20007;-73
2022/09/21 07:39:54;;;;;;;18.85;3.42;;;19.00;81.20;;;;;;6051709;23;20026;-73
2022/09/21 07:42:22;;;;;;;24.67;3.67;;;19.00;81.30;;;;;;6061793;23;20038;-74
2022/09/21 07:44:50;;;;;;;20.13;4.95;;;19.00;81.50;;;;;;6060621;23;20062;-75
2022/09/21 07:47:17;;;;;;;16.20;3.13;;;19.00;81.50;;;;;;6061489;23;20026;-75
2022/09/21 07:49:45;;;;;;;20.63;3.95;;;19.00;81.40;;;;;;6063433;23;20029;-73
2022/09/21 07:52:14;;;;;;;28.52;4.78;;;19.00;81.40;;;;;;6063097;23;20014;-73
2022/09/21 07:54:41;;;;;;;18.33;3.72;;;18.90;81.70;;;;;;6063466;23;20015;-73
2022/09/21 07:59:57;;;;;;;19.67;3.65;;;18.90;81.50;;;;;;6063308;23;20014;-72
2022/09/21 08:02:24;;;;;;;20.30;3.85;;;18.90;81.80;;;;;;6062858;23;20509;-72
2022/09/21 08:04:52;;;;;;;16.50;3.63;;;18.90;81.60;;;;;;6063101;23;20035;-72
2022/09/21 08:07:20;;;;;;;17.30;2.95;;;18.90;81.70;;;;;;6063157;23;20244;-72
2022/09/21 08:09:49;;;;;;;23.30;4.20;;;18.90;81.80;;;;;;6061720;23;20006;-72
2022/09/21 08:12:18;;;;;;;21.67;3.90;;;18.90;81.70;;;;;;6061534;23;20085;-72
2022/09/21 08:14:46;;;;;;;16.60;3.33;;;18.90;81.70;;;;;;6063108;23;20013;-72
2022/09/21 08:17:14;;;;;;;24.45;4.50;;;18.90;81.60;;;;;;6063024;23;20025;-72
2022/09/21 08:19:41;;;;;;;22.20;3.42;;;18.90;81.60;;;;;;6063099;23;20017;-72
2022/09/21 08:22:08;;;;;;;30.25;4.90;;;18.90;81.80;;;;;;6062396;23;20039;-76
2022/09/21 08:24:36;;;;;;;24.00;4.03;;;18.80;81.90;;;;;;6037319;23;20021;-72
2022/09/21 08:27:03;;;;;;;14.77;3.42;;;18.80;82.00;;;;;;6062543;23;20007;-73
2022/09/21 08:29:31;;;;;;;23.13;4.00;;;18.80;82.00;;;;;;6062880;23;20034;-71
2022/09/21 08:31:58;;;;;;;22.60;3.95;;;18.80;81.90;;;;;;6061207;23;20447;-72
2022/09/21 08:34:25;;;;;;;18.80;3.83;;;18.90;81.90;;;;;;6060724;23;20102;-71
2022/09/21 08:36:52;;;;;;;15.85;3.35;;;18.80;81.90;;;;;;6062955;23;20017;-73
2022/09/21 08:39:19;;;;;;;20.00;3.47;;;18.80;82.00;;;;;;6060922;23;20022;-71
2022/09/21 08:42:07;;;;;;;18.77;3.72;;;18.80;82.00;;;;;;6062141;23;20070;-73
2022/09/21 08:44:49;;;;;;;19.75;3.92;;;18.80;82.10;;;;;;6060081;23;20525;-73
2022/09/21 08:47:32;;;;;;;19.10;3.50;;;18.80;82.20;;;;;;6060223;23;20019;-72
2022/09/21 08:50:00;;;;;;;20.27;3.80;;;18.80;82.20;;;;;;6061173;23;20007;-74
2022/09/21 08:52:27;;;;;;;21.83;4.13;;;18.80;82.20;;;;;;6037385;23;20022;-75
2022/09/21 08:55:17;;;;;;;17.88;4.18;;;18.80;82.10;;;;;;6061098;23;20066;-72
2022/09/21 08:57:44;;;;;;;23.67;4.15;;;18.80;82.10;;;;;;6060896;23;20017;-71
2022/09/21 09:00:16;;;;;;;18.75;4.43;;;18.80;82.10;;;;;;6061830;23;20018;-72
2022/09/21 09:03:06;;;;;;;19.80;3.80;;;18.80;82.10;;;;;;6061062;23;20007;-73
2022/09/21 09:06:24;;;;;;;23.83;3.95;;;18.80;82.10;;;;;;6062690;23;20007;-73
2022/09/21 09:09:15;;;;;;;17.73;3.17;;;18.80;82.00;;;;;;6054686;23;20465;-74
2022/09/21 09:11:48;;;;;;;19.75;3.78;;;18.80;82.00;;;;;;6062786;23;20411;-75
2022/09/21 09:14:37;;;;;;;23.38;3.63;;;18.80;82.10;;;;;;6062313;23;20003;-74
2022/09/21 09:17:20;;;;;;;29.23;4.72;;;18.70;82.10;;;;;;6061178;23;20439;-74
2022/09/21 09:20:00;;;;;;;20.05;4.10;;;18.80;82.10;;;;;;6062972;23;20003;-74
2022/09/21 09:22:59;;;;;;;16.92;3.72;;;18.80;82.10;;;;;;6058983;23;20011;-73
2022/09/21 09:25:26;;;;;;;23.65;4.45;;;18.80;82.10;;;;;;5992382;23;20066;-72
2022/09/21 09:27:53;;;;;;;28.90;4.25;;;18.80;82.30;;;;;;6012320;23;20355;-74
2022/09/21 09:30:24;;;;;;;20.95;4.03;;;18.80;82.40;;;;;;6033716;23;20010;-71
2022/09/21 09:33:15;;;;;;;24.95;4.15;;;18.80;82.50;;;;;;6055984;23;20435;-70
2022/09/21 09:36:06;;;;;;;28.40;4.30;;;18.80;82.60;;;;;;6060585;23;20010;-73
2022/09/21 09:38:41;;;;;;;22.00;4.38;;;18.80;82.70;;;;;;6060368;23;20013;-74
2022/09/21 09:41:26;;;;;;;20.33;3.97;;;18.80;82.90;;;;;;6035552;23;20023;-73
2022/09/21 09:44:07;;;;;;;26.40;4.18;;;18.80;82.90;;;;;;6034314;23;20007;-71
2022/09/21 09:46:34;;;;;;;21.60;4.45;;;18.70;83.00;;;;;;6037189;23;20063;-72
2022/09/21 09:49:04;;;;;;;24.60;4.35;;;18.70;83.20;;;;;;6061039;23;20335;-71
2022/09/21 09:51:34;;;;;;;21.23;4.55;;;18.70;83.00;;;;;;6061519;23;20082;-72
2022/09/21 09:54:02;;;;;;;21.00;4.70;;;18.70;83.10;;;;;;6014456;23;20087;-72
2022/09/21 09:56:31;;;;;;;26.50;4.30;;;18.70;83.20;;;;;;6062269;23;20015;-72
2022/09/21 09:59:06;;;;;;;24.02;4.22;;;18.70;83.20;;;;;;6036057;23;20019;-72
2022/09/21 10:01:41;;;;;;;19.58;3.90;;;18.70;83.30;;;;;;6012590;23;20007;-72
2022/09/21 10:04:10;;;;;;;24.50;4.30;;;18.60;83.20;;;;;;6061674;23;20066;-71
2022/09/21 10:06:37;;;;;;;21.98;4.57;;;18.60;83.10;;;;;;6062125;23;20011;-71
2022/09/21 10:09:22;;;;;;;24.13;3.38;;;18.70;83.00;;;;;;6062207;23;20017;-69
